Time;durP1;ratioP1;P1;durP2;ratioP2;P2;SDS_P1;SDS_P2;PMS_P1;PMS_P2;Temp;Humidity;BMP_temperature;BMP_pressure;BME280_temperature;BME280_humidity;BME280_pressure;Samples;Min_cycle;Max_cycle;Signal;HPM_P1;HPM_P2
2024/03/01 00:00:27;;;;;;;42.77;29.77;;;;;22.10;99253.00;;;;2054987;28;20223;-66
2024/03/01 00:01:27;;;;;;;41.37;29.03;;;;;22.10;99257.00;;;;2044942;28;20220;-66
2024/03/01 00:02:27;;;;;;;43.67;31.60;;;;;22.10;99254.00;;;;2054729;28;20223;-67
2024/03/01 00:03:28;;;;;;;41.73;29.13;;;;;22.10;99253.00;;;;2046501;28;20252;-67
2024/03/01 00:04:28;;;;;;;41.27;29.43;;;;;22.10;99254.00;;;;2046643;28;20370;-67
2024/03/01 00:05:29;;;;;;;41.97;29.67;;;;;22.10;99247.00;;;;2055990;28;20230;-67
2024/03/01 00:06:30;;;;;;;41.63;29.25;;;;;22.10;99241.00;;;;2045984;28;20281;-67
2024/03/01 00:07:30;;;;;;;41.00;28.37;;;;;22.10;99250.00;;;;2052313;28;20763;-67
2024/03/01 00:08:30;;;;;;;38.30;28.00;;;;;22.00;99241.00;;;;2055716;28;20234;-67
2024/03/01 00:09:30;;;;;;;42.67;29.67;;;;;22.00;99236.00;;;;2054245;28;20254;-67
2024/03/01 00:10:31;;;;;;;42.10;28.73;;;;;22.00;99245.00;;;;2060508;28;20226;-67
2024/03/01 00:11:31;;;;;;;39.23;28.50;;;;;22.00;99245.00;;;;2040560;28;20220;-67
2024/03/01 00:12:31;;;;;;;39.77;28.60;;;;;22.00;99242.00;;;;2047167;28;20224;-67
2024/03/01 00:13:32;;;;;;;39.63;28.37;;;;;22.00;99232.00;;;;2055421;28;20211;-67
2024/03/01 00:14:32;;;;;;;39.80;27.40;;;;;22.00;99231.00;;;;2054047;28;20223;-67
2024/03/01 00:15:32;;;;;;;37.93;26.03;;;;;22.00;99243.00;;;;2055442;28;20211;-67
2024/03/01 00:16:33;;;;;;;36.73;25.90;;;;;22.00;99231.00;;;;2043269;28;20253;-67
2024/03/01 00:17:33;;;;;;;39.47;27.33;;;;;22.00;99236.00;;;;2055220;28;20215;-67
2024/03/01 00:18:34;;;;;;;37.53;26.73;;;;;22.00;99235.00;;;;2055291;28;20218;-67
2024/03/01 00:19:34;;;;;;;37.73;26.80;;;;;22.00;99226.00;;;;2055083;28;20220;-67
2024/03/01 00:20:35;;;;;;;37.30;25.37;;;;;22.00;99224.00;;;;2055881;28;21160;-67
2024/03/01 00:21:35;;;;;;;34.80;25.30;;;;;22.00;99168.00;;;;2045416;28;20223;-67
2024/03/01 00:22:35;;;;;;;33.73;25.40;;;;;22.00;99227.00;;;;2055855;28;20208;-67
2024/03/01 00:23:36;;;;;;;36.80;26.30;;;;;22.00;99220.00;;;;2053862;28;20235;-67
2024/03/01 00:24:36;;;;;;;37.40;25.23;;;;;22.00;99228.00;;;;2051964;28;20228;-67
2024/03/01 00:25:36;;;;;;;36.80;25.43;;;;;22.00;99214.00;;;;2054400;28;20216;-67
2024/03/01 00:26:37;;;;;;;35.73;25.40;;;;;22.00;99217.00;;;;2045389;28;20239;-67
2024/03/01 00:27:37;;;;;;;33.83;24.33;;;;;22.00;99219.00;;;;2053582;28;20274;-67
2024/03/01 00:28:37;;;;;;;34.37;24.47;;;;;22.00;99213.00;;;;2053654;28;20207;-67
2024/03/01 00:29:38;;;;;;;32.90;24.40;;;;;22.00;99209.00;;;;2053016;28;20598;-67
2024/03/01 00:30:38;;;;;;;31.67;24.37;;;;;21.90;99220.00;;;;2055568;28;20281;-67
2024/03/01 00:31:39;;;;;;;34.60;24.00;;;;;21.90;99224.00;;;;2044539;28;20230;-67
2024/03/01 00:32:40;;;;;;;33.50;23.80;;;;;21.90;99215.00;;;;2054814;28;20212;-67
2024/03/01 00:33:40;;;;;;;31.75;23.63;;;;;21.90;99213.00;;;;2053736;28;20207;-67
2024/03/01 00:34:40;;;;;;;33.70;23.77;;;;;21.90;99213.00;;;;2058352;28;20709;-67
2024/03/01 00:35:41;;;;;;;31.20;21.50;;;;;21.90;99214.00;;;;2054777;28;20707;-67
2024/03/01 00:36:41;;;;;;;30.90;21.77;;;;;21.90;99218.00;;;;2044629;28;20231;-67
2024/03/01 00:37:41;;;;;;;31.50;22.77;;;;;21.90;99215.00;;;;2055624;28;20682;-67
2024/03/01 00:38:42;;;;;;;33.00;23.23;;;;;21.90;99212.00;;;;2054095;28;20663;-67
2024/03/01 00:39:42;;;;;;;31.07;22.53;;;;;21.90;99201.00;;;;2055651;28;20262;-67
2024/03/01 00:40:42;;;;;;;34.00;23.00;;;;;21.90;99208.00;;;;2055020;28;20723;-67
2024/03/01 00:41:43;;;;;;;30.90;21.57;;;;;21.90;99209.00;;;;2043605;28;20667;-67
2024/03/01 00:42:43;;;;;;;32.03;22.00;;;;;21.90;99205.00;;;;2055105;28;20703;-67
2024/03/01 00:43:44;;;;;;;30.63;21.87;;;;;21.90;99205.00;;;;2053494;28;20716;-67
2024/03/01 00:44:44;;;;;;;29.03;20.80;;;;;21.90;99207.00;;;;2054922;28;20215;-67
2024/03/01 00:45:44;;;;;;;27.20;20.27;;;;;21.90;99208.00;;;;2054677;28;20219;-67
2024/03/01 00:46:45;;;;;;;28.70;20.23;;;;;21.90;99211.00;;;;2045988;28;20243;-67
2024/03/01 00:47:45;;;;;;;26.13;20.67;;;;;21.90;99213.00;;;;2052818;28;20217;-67
2024/03/01 00:48:46;;;;;;;32.13;21.30;;;;;21.90;99211.00;;;;2055661;28;20270;-67
2024/03/01 00:49:48;;;;;;;29.17;20.07;;;;;21.90;99211.00;;;;2055616;28;20463;-67
2024/03/01 00:50:48;;;;;;;28.20;21.42;;;;;21.90;99208.00;;;;2050499;28;20216;-67
2024/03/01 00:51:48;;;;;;;27.63;20.53;;;;;21.90;99219.00;;;;2045910;28;20734;-67
2024/03/01 00:52:49;;;;;;;30.20;21.23;;;;;21.90;99210.00;;;;2051170;28;20231;-67
2024/03/01 00:53:49;;;;;;;27.67;19.17;;;;;21.80;99206.00;;;;2054358;28;20224;-67
2024/03/01 00:54:50;;;;;;;29.00;19.27;;;;;21.80;99203.00;;;;2054373;28;20723;-67
2024/03/01 00:55:50;;;;;;;28.40;20.67;;;;;21.80;99206.00;;;;2055630;28;20753;-67
2024/03/01 00:56:51;;;;;;;28.07;19.57;;;;;21.80;99205.00;;;;2045776;28;20708;-67
2024/03/01 00:57:52;;;;;;;27.08;18.65;;;;;21.80;99206.00;;;;2054275;28;20604;-67
2024/03/01 00:58:52;;;;;;;27.53;18.93;;;;;21.80;99211.00;;;;2055680;28;20317;-67
2024/03/01 00:59:52;;;;;;;28.93;19.60;;;;;21.80;99212.00;;;;2054814;28;20211;-67
2024/03/01 01:00:53;;;;;;;27.00;19.07;;;;;21.80;99204.00;;;;2055556;28;20218;-67
2024/03/01 01:01:53;;;;;;;27.57;19.37;;;;;21.80;99201.00;;;;2044116;28;20219;-67
2024/03/01 01:02:53;;;;;;;28.03;19.10;;;;;21.80;99210.00;;;;2055601;28;20227;-67
2024/03/01 01:03:54;;;;;;;24.50;17.90;;;;;21.80;99209.00;;;;2055571;28;20254;-67
2024/03/01 01:04:54;;;;;;;23.40;17.60;;;;;21.80;99168.00;;;;2053879;28;20243;-67
2024/03/01 01:05:55;;;;;;;26.33;18.57;;;;;21.80;99197.00;;;;2055710;28;20219;-67
2024/03/01 01:06:55;;;;;;;27.40;17.63;;;;;21.80;99202.00;;;;2044338;28;20738;-67
2024/03/01 01:07:56;;;;;;;23.50;17.10;;;;;21.80;99204.00;;;;2055738;28;20215;-67
2024/03/01 01:08:56;;;;;;;24.17;17.60;;;;;21.80;99198.00;;;;2054319;28;20307;-67
2024/03/01 01:09:56;;;;;;;27.97;18.23;;;;;21.80;99197.00;;;;2054093;28;20223;-67
2024/03/01 01:10:56;;;;;;;23.70;17.50;;;;;21.80;99199.00;;;;2055107;28;20301;-67
2024/03/01 01:11:57;;;;;;;27.33;17.97;;;;;21.80;99196.00;;;;2044960;28;20223;-67
2024/03/01 01:12:57;;;;;;;22.97;17.20;;;;;21.80;99199.00;;;;2055758;28;20231;-67
2024/03/01 01:13:58;;;;;;;22.20;16.63;;;;;21.80;99200.00;;;;2053575;28;20251;-67
2024/03/01 01:14:58;;;;;;;23.50;17.33;;;;;21.80;99203.00;;;;2059320;28;20219;-67
2024/03/01 01:15:58;;;;;;;20.37;15.60;;;;;21.80;99191.00;;;;2046824;28;20223;-67
2024/03/01 01:16:59;;;;;;;21.40;16.13;;;;;21.80;99194.00;;;;2036891;28;20223;-67
2024/03/01 01:17:59;;;;;;;22.27;16.13;;;;;21.80;99193.00;;;;2054904;28;20215;-67
2024/03/01 01:19:00;;;;;;;21.07;15.50;;;;;21.80;99195.00;;;;2054975;28;21046;-67
2024/03/01 01:20:00;;;;;;;21.00;15.37;;;;;21.70;99147.00;;;;2055506;28;20697;-67
2024/03/01 01:21:00;;;;;;;24.27;16.40;;;;;21.70;99197.00;;;;2053196;28;20223;-67
2024/03/01 01:22:01;;;;;;;22.03;16.00;;;;;21.70;99185.00;;;;2045412;28;20224;-67
2024/03/01 01:23:01;;;;;;;21.80;15.67;;;;;21.80;99184.00;;;;2055509;28;20222;-67
2024/03/01 01:24:01;;;;;;;21.97;15.60;;;;;21.80;99186.00;;;;2054330;28;20258;-67
2024/03/01 01:25:02;;;;;;;19.83;15.87;;;;;21.70;99189.00;;;;2052726;28;20219;-67
2024/03/01 01:26:02;;;;;;;21.60;14.80;;;;;21.70;99185.00;;;;2048781;28;20271;-67
2024/03/01 01:27:02;;;;;;;22.20;16.10;;;;;21.70;99177.00;;;;2044037;28;20235;-67
2024/03/01 01:28:03;;;;;;;20.83;14.77;;;;;21.70;99174.00;;;;2047243;28;20220;-67
2024/03/01 01:29:03;;;;;;;21.47;15.77;;;;;21.70;99183.00;;;;2048517;28;20220;-67
2024/03/01 01:30:05;;;;;;;22.03;15.70;;;;;21.70;99176.00;;;;2055286;28;20227;-67
2024/03/01 01:31:07;;;;;;;20.85;15.15;;;;;21.70;99171.00;;;;2052997;28;20226;-67
2024/03/01 01:32:08;;;;;;;20.90;16.08;;;;;21.70;99171.00;;;;2044067;28;20298;-67
2024/03/01 01:33:09;;;;;;;22.33;14.80;;;;;21.70;99171.00;;;;2053940;28;20215;-67
2024/03/01 01:34:09;;;;;;;17.93;13.73;;;;;21.70;99165.00;;;;2053168;28;20244;-67
2024/03/01 01:35:09;;;;;;;21.47;14.70;;;;;21.70;99164.00;;;;2052199;28;20221;-67
2024/03/01 01:36:10;;;;;;;19.50;13.20;;;;;21.70;99163.00;;;;2050743;28;20223;-67
2024/03/01 01:37:11;;;;;;;20.17;14.97;;;;;21.70;99166.00;;;;2054321;28;20235;-67
2024/03/01 01:38:11;;;;;;;20.67;14.57;;;;;21.70;99165.00;;;;2053255;28;20463;-67
2024/03/01 01:39:11;;;;;;;19.30;13.87;;;;;21.70;99153.00;;;;2054542;28;20628;-67
2024/03/01 01:40:12;;;;;;;19.87;13.30;;;;;21.70;99158.00;;;;2052543;28;20241;-67
2024/03/01 01:41:12;;;;;;;18.03;13.30;;;;;21.70;99153.00;;;;2045028;28;20620;-67
2024/03/01 01:42:13;;;;;;;23.30;15.23;;;;;21.70;99169.00;;;;2054493;28;20212;-67
2024/03/01 01:43:13;;;;;;;17.70;12.67;;;;;21.70;99160.00;;;;2054915;28;20210;-67
2024/03/01 01:44:14;;;;;;;18.50;13.50;;;;;21.70;99166.00;;;;2054774;28;20204;-67
2024/03/01 01:45:14;;;;;;;17.40;13.07;;;;;21.70;99160.00;;;;2054192;28;20219;-67
2024/03/01 01:46:15;;;;;;;19.47;14.03;;;;;21.70;99165.00;;;;2045151;28;20996;-67
2024/03/01 01:47:16;;;;;;;19.43;13.43;;;;;21.70;99056.00;;;;2054468;28;20215;-67
2024/03/01 01:48:17;;;;;;;18.43;14.07;;;;;21.70;99165.00;;;;2054711;28;20208;-67
2024/03/01 01:49:18;;;;;;;17.60;13.20;;;;;21.60;99167.00;;;;2051521;28;20506;-67
2024/03/01 01:50:18;;;;;;;19.23;13.40;;;;;21.60;99164.00;;;;2054720;28;20828;-67
2024/03/01 01:51:19;;;;;;;17.57;13.30;;;;;21.60;99157.00;;;;2045488;28;20208;-67
2024/03/01 01:52:19;;;;;;;14.77;12.23;;;;;21.60;99149.00;;;;2052341;28;20239;-67
2024/03/01 01:53:20;;;;;;;17.53;13.57;;;;;21.60;99146.00;;;;2050883;28;20216;-67
2024/03/01 01:54:20;;;;;;;18.43;12.10;;;;;21.60;99149.00;;;;2053843;28;20224;-67
2024/03/01 01:55:20;;;;;;;17.03;11.37;;;;;21.60;99077.00;;;;2055133;28;20254;-67
2024/03/01 01:56:20;;;;;;;19.20;12.80;;;;;21.60;99148.00;;;;2046366;28;20306;-67
2024/03/01 01:57:21;;;;;;;16.60;12.17;;;;;21.60;99156.00;;;;2053763;28;20683;-67
2024/03/01 01:58:21;;;;;;;18.30;12.70;;;;;21.60;99158.00;;;;2054564;28;20997;-67
2024/03/01 01:59:21;;;;;;;18.13;12.80;;;;;21.60;99163.00;;;;2052930;28;20735;-67
2024/03/01 02:00:22;;;;;;;15.33;11.30;;;;;21.60;99157.00;;;;2046060;28;20240;-67
2024/03/01 02:01:23;;;;;;;18.27;12.73;;;;;21.60;99149.00;;;;2029565;29;20668;-67
2024/03/01 02:02:23;;;;;;;16.53;12.73;;;;;21.60;99155.00;;;;2039682;29;20452;-67
2024/03/01 02:03:23;;;;;;;14.83;10.60;;;;;21.60;99158.00;;;;2038093;29;20216;-67
2024/03/01 02:04:24;;;;;;;15.47;11.47;;;;;21.60;99155.00;;;;2047157;28;20204;-67
2024/03/01 02:05:24;;;;;;;15.90;11.93;;;;;21.60;99155.00;;;;2056666;28;20215;-67
2024/03/01 02:06:25;;;;;;;15.47;11.60;;;;;21.60;99149.00;;;;2037376;28;20211;-67
2024/03/01 02:07:25;;;;;;;15.00;11.53;;;;;21.60;99157.00;;;;2048048;28;20247;-67
2024/03/01 02:08:25;;;;;;;14.20;10.60;;;;;21.60;99147.00;;;;2046521;28;20216;-67
2024/03/01 02:09:26;;;;;;;18.47;12.03;;;;;21.60;99071.00;;;;2031612;29;20251;-67
2024/03/01 02:10:26;;;;;;;14.20;11.00;;;;;21.60;99148.00;;;;2028795;29;20214;-67
2024/03/01 02:11:26;;;;;;;13.67;10.33;;;;;21.60;99138.00;;;;2028868;29;20232;-67
2024/03/01 02:12:27;;;;;;;15.30;11.30;;;;;21.60;99136.00;;;;2050271;28;20223;-67
2024/03/01 02:13:27;;;;;;;14.33;10.40;;;;;21.60;99128.00;;;;2054410;28;20240;-67
2024/03/01 02:14:28;;;;;;;15.10;11.27;;;;;21.60;99130.00;;;;2042441;28;20244;-67
2024/03/01 02:15:28;;;;;;;14.50;10.73;;;;;21.60;99066.00;;;;2047133;28;20867;-67
2024/03/01 02:16:29;;;;;;;13.30;9.80;;;;;21.60;99122.00;;;;2045395;28;20583;-67
2024/03/01 02:17:29;;;;;;;13.70;9.80;;;;;21.60;99116.00;;;;2055162;28;20208;-67
2024/03/01 02:18:30;;;;;;;14.30;10.57;;;;;21.50;99136.00;;;;2044094;28;20232;-67
2024/03/01 02:19:30;;;;;;;14.33;10.20;;;;;21.60;99130.00;;;;2043187;28;20211;-67
2024/03/01 02:20:31;;;;;;;14.60;10.10;;;;;21.50;99129.00;;;;2054946;28;20462;-67
2024/03/01 02:21:35;;;;;;;15.50;10.57;;;;;21.50;99130.00;;;;2037911;28;20232;-67
2024/03/01 02:22:35;;;;;;;13.90;9.65;;;;;21.50;99094.00;;;;2048496;28;20602;-66
2024/03/01 02:23:36;;;;;;;14.03;10.60;;;;;21.50;99124.00;;;;2052166;28;20303;-66
2024/03/01 02:24:36;;;;;;;12.00;9.27;;;;;21.60;99120.00;;;;2050993;28;20282;-66
2024/03/01 02:25:36;;;;;;;15.93;11.20;;;;;21.60;99125.00;;;;2052935;28;20228;-66
2024/03/01 02:26:37;;;;;;;14.37;10.13;;;;;21.60;99130.00;;;;2040013;28;20251;-66
2024/03/01 02:27:37;;;;;;;11.17;9.17;;;;;21.50;99119.00;;;;2051052;28;20227;-66
2024/03/01 02:28:44;;;;;;;13.40;9.47;;;;;21.50;99126.00;;;;2055273;28;20217;-66
2024/03/01 02:29:44;;;;;;;15.57;10.55;;;;;21.50;99111.00;;;;2056213;28;20227;-66
2024/03/01 02:30:44;;;;;;;13.13;9.50;;;;;21.50;99127.00;;;;2053598;28;20208;-66
2024/03/01 02:31:45;;;;;;;13.70;10.60;;;;;21.50;99054.00;;;;2046095;28;20220;-66
2024/03/01 02:32:46;;;;;;;12.90;9.67;;;;;21.50;99124.00;;;;2055332;28;20219;-66
2024/03/01 02:33:46;;;;;;;12.40;9.33;;;;;21.50;99112.00;;;;2056347;28;20208;-67
2024/03/01 02:34:46;;;;;;;11.00;8.57;;;;;21.50;99116.00;;;;2056233;28;20585;-67
2024/03/01 02:35:47;;;;;;;14.23;10.00;;;;;21.50;99117.00;;;;2055665;28;20214;-67
2024/03/01 02:36:47;;;;;;;13.40;9.43;;;;;21.50;99110.00;;;;2046149;28;20233;-67
2024/03/01 02:37:47;;;;;;;12.90;9.47;;;;;21.50;99111.00;;;;2055376;28;20208;-67
2024/03/01 02:38:48;;;;;;;14.23;10.00;;;;;21.50;99110.00;;;;2056342;28;20274;-67
2024/03/01 02:39:48;;;;;;;11.57;9.10;;;;;21.50;99104.00;;;;2054436;28;20204;-67
2024/03/01 02:40:48;;;;;;;12.40;9.00;;;;;21.50;99107.00;;;;2056180;28;20207;-67
2024/03/01 02:41:49;;;;;;;12.00;9.03;;;;;21.50;99094.00;;;;2046094;28;20222;-67
2024/03/01 02:42:49;;;;;;;10.93;8.60;;;;;21.50;99106.00;;;;2055397;28;20207;-67
2024/03/01 02:43:49;;;;;;;9.33;7.90;;;;;21.50;99096.00;;;;2051206;28;20214;-67
2024/03/01 02:44:50;;;;;;;13.00;9.43;;;;;21.50;99095.00;;;;2051200;28;21462;-67
2024/03/01 02:45:50;;;;;;;12.00;8.97;;;;;21.50;99096.00;;;;2056482;28;20307;-67
2024/03/01 02:46:50;;;;;;;11.60;8.73;;;;;21.50;99097.00;;;;2045509;28;20218;-67
2024/03/01 02:47:51;;;;;;;12.30;9.03;;;;;21.40;99087.00;;;;2055982;28;20215;-67
2024/03/01 02:48:51;;;;;;;11.17;8.40;;;;;21.50;99084.00;;;;2056366;28;20255;-67
2024/03/01 02:49:52;;;;;;;12.20;8.90;;;;;21.50;99083.00;;;;2050546;28;20227;-67
2024/03/01 02:50:52;;;;;;;9.87;7.67;;;;;21.50;99085.00;;;;2053990;28;20219;-67
2024/03/01 02:51:52;;;;;;;11.43;7.67;;;;;21.40;99091.00;;;;2039809;28;20228;-67
2024/03/01 02:52:53;;;;;;;11.97;8.57;;;;;21.50;99084.00;;;;2052826;28;20218;-67
2024/03/01 02:53:53;;;;;;;10.27;7.90;;;;;21.50;99093.00;;;;2056106;28;20211;-67
2024/03/01 02:54:53;;;;;;;11.80;8.70;;;;;21.40;99089.00;;;;2054229;28;20702;-67
2024/03/01 02:55:54;;;;;;;10.93;8.20;;;;;21.40;99086.00;;;;2056399;28;20231;-67
2024/03/01 02:56:54;;;;;;;11.40;8.70;;;;;21.40;99085.00;;;;2045653;28;20215;-67
2024/03/01 02:57:55;;;;;;;13.97;9.10;;;;;21.40;99077.00;;;;2056372;28;20243;-67
2024/03/01 02:58:55;;;;;;;12.07;8.40;;;;;21.40;99081.00;;;;2055607;28;20212;-67
2024/03/01 02:59:57;;;;;;;12.20;8.73;;;;;21.40;99080.00;;;;2056311;28;20602;-67
2024/03/01 03:00:57;;;;;;;10.40;7.60;;;;;21.40;99081.00;;;;2056325;28;20211;-67
2024/03/01 03:01:58;;;;;;;10.73;8.10;;;;;21.40;99085.00;;;;2045492;28;20222;-66
2024/03/01 03:02:58;;;;;;;12.70;9.13;;;;;21.40;99081.00;;;;2056160;28;20212;-66
2024/03/01 03:03:59;;;;;;;11.03;8.37;;;;;21.40;99088.00;;;;2052897;28;20475;-66
2024/03/01 03:04:59;;;;;;;10.63;7.07;;;;;21.40;99080.00;;;;2054372;28;20372;-66
2024/03/01 03:05:59;;;;;;;11.07;7.70;;;;;21.20;99081.00;;;;2039120;29;20209;-66
2024/03/01 03:07:00;;;;;;;11.93;8.57;;;;;21.40;99088.00;;;;2028959;29;20209;-66
2024/03/01 03:08:00;;;;;;;12.03;7.77;;;;;21.40;99025.00;;;;2056426;28;20224;-66
2024/03/01 03:09:01;;;;;;;10.60;7.50;;;;;21.40;99093.00;;;;2052341;28;20290;-67
2024/03/01 03:10:01;;;;;;;10.07;7.30;;;;;21.40;99090.00;;;;2056153;28;20578;-67
2024/03/01 03:11:01;;;;;;;11.03;7.93;;;;;21.40;99056.00;;;;2054966;28;20216;-67
2024/03/01 03:12:02;;;;;;;12.10;8.10;;;;;21.40;99079.00;;;;2046369;28;20693;-67
2024/03/01 03:13:03;;;;;;;11.20;7.47;;;;;21.40;99081.00;;;;2054273;28;20218;-67
2024/03/01 03:14:03;;;;;;;9.68;7.50;;;;;21.40;99083.00;;;;2050590;28;20212;-67
2024/03/01 03:15:07;;;;;;;9.93;7.00;;;;;21.40;99070.00;;;;2055927;28;20215;-67
2024/03/01 03:16:07;;;;;;;10.13;7.22;;;;;21.40;99087.00;;;;2055215;28;20683;-67
2024/03/01 03:17:07;;;;;;;10.20;7.07;;;;;21.40;99080.00;;;;2046400;28;20239;-67
2024/03/01 03:18:08;;;;;;;9.93;6.90;;;;;21.40;99075.00;;;;2055426;28;20278;-67
2024/03/01 03:19:08;;;;;;;10.23;7.67;;;;;21.40;99071.00;;;;2055891;28;20223;-67
2024/03/01 03:20:12;;;;;;;9.53;6.70;;;;;21.40;99079.00;;;;2056192;28;20281;-67
2024/03/01 03:21:12;;;;;;;10.00;7.55;;;;;21.40;99077.00;;;;2045233;28;20746;-67
2024/03/01 03:22:13;;;;;;;9.27;6.60;;;;;21.40;99076.00;;;;2046259;28;20215;-67
2024/03/01 03:23:13;;;;;;;9.13;7.17;;;;;21.40;99075.00;;;;2048124;28;20647;-67
2024/03/01 03:24:14;;;;;;;9.80;7.13;;;;;21.40;99084.00;;;;2055862;28;20216;-67
2024/03/01 03:25:14;;;;;;;8.90;6.57;;;;;21.40;99072.00;;;;2053424;28;20282;-67
2024/03/01 03:26:15;;;;;;;10.07;7.07;;;;;21.40;99073.00;;;;2035990;28;20767;-67
2024/03/01 03:27:16;;;;;;;9.53;6.90;;;;;21.40;99079.00;;;;2056073;28;20212;-67
2024/03/01 03:28:19;;;;;;;10.07;7.03;;;;;21.40;99078.00;;;;2055695;28;20219;-66
2024/03/01 03:29:20;;;;;;;7.78;5.65;;;;;21.40;99072.00;;;;2055952;28;20589;-66
2024/03/01 03:30:20;;;;;;;9.13;6.43;;;;;21.40;99078.00;;;;2052435;28;20248;-66
2024/03/01 03:31:21;;;;;;;8.07;6.27;;;;;21.40;99075.00;;;;2042950;28;20230;-66
2024/03/01 03:32:22;;;;;;;8.93;6.68;;;;;21.40;99061.00;;;;2055316;28;20223;-66
2024/03/01 03:33:22;;;;;;;9.50;6.17;;;;;21.30;99087.00;;;;2055870;28;20215;-66
2024/03/01 03:34:22;;;;;;;9.40;6.60;;;;;21.30;99049.00;;;;2047092;28;20644;-66
2024/03/01 03:35:23;;;;;;;8.27;6.20;;;;;21.40;99083.00;;;;2046879;28;20568;-66
2024/03/01 03:36:24;;;;;;;7.80;5.67;;;;;21.30;99084.00;;;;2045053;28;20727;-66
2024/03/01 03:37:24;;;;;;;8.65;6.07;;;;;21.40;99096.00;;;;2055023;28;20215;-66
2024/03/01 03:38:25;;;;;;;9.70;6.70;;;;;21.30;98985.00;;;;2055878;28;20219;-66
2024/03/01 03:39:25;;;;;;;10.03;6.80;;;;;21.30;99088.00;;;;2054508;28;20215;-66
2024/03/01 03:40:26;;;;;;;8.60;5.83;;;;;21.40;99088.00;;;;2056008;28;20273;-66
2024/03/01 03:41:26;;;;;;;9.17;6.10;;;;;21.40;99099.00;;;;2046221;28;20264;-66
2024/03/01 03:42:27;;;;;;;8.80;5.80;;;;;21.30;99102.00;;;;2049878;28;20467;-66
2024/03/01 03:43:27;;;;;;;8.80;6.30;;;;;21.30;99098.00;;;;2055994;28;20219;-66
2024/03/01 03:44:27;;;;;;;8.17;6.40;;;;;21.30;99087.00;;;;2054356;28;20223;-67
2024/03/01 03:45:28;;;;;;;9.03;6.33;;;;;21.30;99091.00;;;;2055993;28;20219;-67
2024/03/01 03:46:29;;;;;;;8.77;5.80;;;;;21.30;99093.00;;;;2044964;28;20274;-67
2024/03/01 03:47:29;;;;;;;8.35;6.20;;;;;21.30;99089.00;;;;2049152;28;20220;-67
2024/03/01 03:48:29;;;;;;;9.13;6.30;;;;;21.30;99101.00;;;;2055443;28;20222;-67
2024/03/01 03:49:30;;;;;;;8.63;6.27;;;;;21.30;99098.00;;;;2054963;28;20208;-67
2024/03/01 03:50:31;;;;;;;10.95;6.00;;;;;21.30;99085.00;;;;2055732;28;20243;-67
2024/03/01 03:51:31;;;;;;;8.20;5.90;;;;;21.30;99100.00;;;;2045260;28;20802;-67
2024/03/01 03:52:35;;;;;;;8.50;6.30;;;;;21.30;99073.00;;;;2055319;28;20212;-67
2024/03/01 03:53:35;;;;;;;8.88;6.07;;;;;21.30;99093.00;;;;2054708;28;20216;-67
2024/03/01 03:54:37;;;;;;;9.63;6.40;;;;;21.30;99096.00;;;;2054801;28;20277;-67
2024/03/01 03:55:38;;;;;;;8.32;5.60;;;;;21.30;99099.00;;;;2054767;28;20715;-67
2024/03/01 03:56:38;;;;;;;7.87;5.70;;;;;21.30;99102.00;;;;2045216;28;20246;-67
2024/03/01 03:57:38;;;;;;;7.43;5.53;;;;;21.30;99102.00;;;;2055931;28;20683;-67
2024/03/01 03:58:39;;;;;;;8.47;6.23;;;;;21.30;99099.00;;;;2055050;28;20223;-67
2024/03/01 03:59:39;;;;;;;8.00;5.43;;;;;21.30;99103.00;;;;2055800;28;20250;-67
2024/03/01 04:00:39;;;;;;;6.83;5.30;;;;;21.30;99094.00;;;;2055850;28;20204;-67
2024/03/01 04:01:40;;;;;;;8.13;5.60;;;;;21.30;99105.00;;;;2041193;28;20789;-67
2024/03/01 04:02:40;;;;;;;7.30;5.20;;;;;21.30;99103.00;;;;2049951;28;25303;-67
2024/03/01 04:03:40;;;;;;;8.37;6.20;;;;;21.30;99098.00;;;;2054692;28;20279;-67
2024/03/01 04:04:41;;;;;;;6.37;4.53;;;;;21.30;99094.00;;;;2054895;28;20239;-67
2024/03/01 04:05:41;;;;;;;7.53;5.20;;;;;21.30;99108.00;;;;2055181;28;20556;-67
2024/03/01 04:06:41;;;;;;;8.40;5.50;;;;;21.30;99099.00;;;;2044994;28;20718;-67
2024/03/01 04:07:42;;;;;;;8.40;5.87;;;;;21.30;99100.00;;;;2053527;28;21077;-67
2024/03/01 04:08:43;;;;;;;7.45;4.72;;;;;21.20;99101.00;;;;2045206;28;20220;-67
2024/03/01 04:09:43;;;;;;;8.07;6.03;;;;;21.30;99104.00;;;;2050457;28;20237;-67
2024/03/01 04:10:44;;;;;;;6.90;5.10;;;;;21.30;99107.00;;;;2056012;28;20222;-67
2024/03/01 04:11:44;;;;;;;7.23;5.53;;;;;21.30;99098.00;;;;2044866;28;20223;-67
2024/03/01 04:12:44;;;;;;;9.10;6.27;;;;;21.20;99109.00;;;;2052367;28;20240;-67
2024/03/01 04:13:45;;;;;;;7.03;4.67;;;;;21.20;99104.00;;;;2054001;28;20222;-67
2024/03/01 04:14:45;;;;;;;7.67;5.37;;;;;21.30;98907.00;;;;2055618;28;20235;-67
2024/03/01 04:15:45;;;;;;;6.87;5.10;;;;;21.20;99095.00;;;;2052253;28;20278;-67
2024/03/01 04:16:45;;;;;;;7.03;5.23;;;;;21.20;99106.00;;;;2045534;28;20215;-66
2024/03/01 04:17:46;;;;;;;8.23;5.60;;;;;21.30;99109.00;;;;2054965;28;20219;-66
2024/03/01 04:18:46;;;;;;;6.43;4.87;;;;;21.30;99105.00;;;;2054856;28;20216;-66
2024/03/01 04:19:46;;;;;;;7.10;5.17;;;;;21.20;99106.00;;;;2053672;28;20215;-66
2024/03/01 04:20:47;;;;;;;7.63;5.70;;;;;21.20;99099.00;;;;2054068;28;20667;-66
2024/03/01 04:21:47;;;;;;;7.23;4.97;;;;;21.20;99110.00;;;;2046074;28;20238;-66
2024/03/01 04:22:49;;;;;;;8.00;5.60;;;;;21.20;99086.00;;;;2055057;28;20581;-66
2024/03/01 04:23:49;;;;;;;7.05;4.80;;;;;21.20;99100.00;;;;2055750;28;20268;-66
2024/03/01 04:24:49;;;;;;;7.00;4.90;;;;;21.20;99098.00;;;;2052141;28;20253;-66
2024/03/01 04:25:54;;;;;;;6.67;4.33;;;;;21.20;99097.00;;;;2045844;28;20303;-66
2024/03/01 04:26:54;;;;;;;7.50;5.05;;;;;21.20;99113.00;;;;2037440;28;20226;-66
2024/03/01 04:27:54;;;;;;;6.60;5.37;;;;;21.20;99097.00;;;;2049254;28;20220;-66
2024/03/01 04:28:55;;;;;;;5.93;4.57;;;;;21.20;99094.00;;;;2055804;28;20218;-66
2024/03/01 04:29:55;;;;;;;7.50;4.83;;;;;21.20;99103.00;;;;2046244;28;20728;-66
2024/03/01 04:30:55;;;;;;;8.37;5.37;;;;;21.20;99096.00;;;;2047118;28;20235;-66
2024/03/01 04:31:56;;;;;;;6.40;4.90;;;;;21.20;99107.00;;;;2037073;28;20214;-66
2024/03/01 04:32:56;;;;;;;7.40;5.10;;;;;21.20;99101.00;;;;2046609;28;20232;-66
2024/03/01 04:33:56;;;;;;;7.10;5.10;;;;;21.20;99101.00;;;;2055580;28;20223;-66
2024/03/01 04:34:57;;;;;;;6.30;4.83;;;;;21.20;99096.00;;;;2054761;28;20261;-66
2024/03/01 04:35:57;;;;;;;7.03;4.90;;;;;21.20;99096.00;;;;2055764;28;20212;-66
2024/03/01 04:36:58;;;;;;;7.97;5.07;;;;;21.20;99098.00;;;;2044764;28;20247;-66
2024/03/01 04:37:58;;;;;;;6.20;4.57;;;;;21.20;99099.00;;;;2055563;28;20265;-66
2024/03/01 04:38:58;;;;;;;6.10;4.30;;;;;21.20;99106.00;;;;2055570;28;20214;-66
2024/03/01 04:39:59;;;;;;;7.70;5.00;;;;;21.20;99102.00;;;;2054422;28;20199;-66
2024/03/01 04:40:59;;;;;;;7.43;4.90;;;;;21.20;99096.00;;;;2055637;28;20207;-66
2024/03/01 04:42:00;;;;;;;6.60;4.40;;;;;21.20;99102.00;;;;2044845;28;20223;-66
2024/03/01 04:43:00;;;;;;;6.73;4.33;;;;;21.20;99106.00;;;;2055622;28;20211;-66
2024/03/01 04:44:01;;;;;;;6.53;4.80;;;;;21.20;99106.00;;;;2053634;28;20461;-66
2024/03/01 04:45:01;;;;;;;7.80;5.30;;;;;21.20;99096.00;;;;2055409;28;20718;-66
2024/03/01 04:46:02;;;;;;;6.50;4.57;;;;;21.20;99106.00;;;;2055630;28;20274;-66
2024/03/01 04:47:02;;;;;;;7.40;4.63;;;;;21.20;99099.00;;;;2044489;28;20214;-66
2024/03/01 04:48:03;;;;;;;6.20;4.50;;;;;21.20;99107.00;;;;2054994;28;20691;-66
2024/03/01 04:49:03;;;;;;;7.20;5.20;;;;;21.20;99101.00;;;;2052967;28;20218;-66
2024/03/01 04:50:05;;;;;;;6.13;4.53;;;;;21.20;99103.00;;;;2055239;28;20262;-66
2024/03/01 04:51:09;;;;;;;6.07;4.30;;;;;21.20;99109.00;;;;2054489;28;20714;-66
2024/03/01 04:52:09;;;;;;;5.57;4.10;;;;;21.20;99115.00;;;;2044278;28;20216;-66
2024/03/01 04:53:09;;;;;;;6.57;4.20;;;;;21.20;99114.00;;;;2055643;28;20207;-66
2024/03/01 04:54:10;;;;;;;7.97;4.77;;;;;21.20;99109.00;;;;2054166;28;20258;-66
2024/03/01 04:55:10;;;;;;;5.83;4.10;;;;;21.20;99115.00;;;;2055290;28;20207;-66
2024/03/01 04:56:10;;;;;;;8.07;4.93;;;;;21.20;99097.00;;;;2041168;28;20276;-66
2024/03/01 04:57:11;;;;;;;6.13;4.27;;;;;21.20;99097.00;;;;2043482;29;20263;-66
2024/03/01 04:58:11;;;;;;;5.90;4.40;;;;;21.10;99098.00;;;;2054554;28;20258;-67